LOT7752 EPGD-EFTU
Flight info
| Callsign | LOT7752 |
|---|---|
| Flight time | 1h 8m |
| Altitude | 32000 |
| Route | VAPOS N133 MOTAD DCT PENOR/N0464F350 DCT NISIX DCT EMPOM |
| Aircraft | B738/M-SDE2E3FGHIRWXY/LB1 |
Departure
| Time | 2026-04-23 18:55 |
|---|---|
| Airport | Gdańsk Lech Wałęsa Airport (EPGD) |
Arrival
| Time | 2026-04-23 20:03 |
|---|---|
| Airport | Turku Airport (EFTU) |
| Time | Latitude | Longitude | Altitude | Speed | Heading |
|---|---|---|---|---|---|
| 2026-04-23 18:20 | 54.38163 | 18.46438 | 451 ft | 0 kts | 22° |
| 2026-04-23 18:44 | 54.38162 | 18.46437 | 451 ft | 1 kts | 22° |
| 2026-04-23 18:44 | 54.38148 | 18.46427 | 451 ft | 2 kts | 26° |
| 2026-04-23 18:44 | 54.38136 | 18.46409 | 450 ft | 2 kts | 55° |
| 2026-04-23 18:44 | 54.38129 | 18.46384 | 449 ft | 2 kts | 78° |
| 2026-04-23 18:45 | 54.38129 | 18.46358 | 449 ft | 2 kts | 101° |
| 2026-04-23 18:45 | 54.38131 | 18.46344 | 449 ft | 1 kts | 114° |
| 2026-04-23 18:45 | 54.38132 | 18.46341 | 449 ft | 0 kts | 115° |
| 2026-04-23 18:48 | 54.38119 | 18.46394 | 449 ft | 10 kts | 112° |
| 2026-04-23 18:48 | 54.38092 | 18.46502 | 451 ft | 8 kts | 112° |
| 2026-04-23 18:48 | 54.38066 | 18.46598 | 450 ft | 8 kts | 131° |
| 2026-04-23 18:48 | 54.38011 | 18.46597 | 449 ft | 9 kts | 204° |
| 2026-04-23 18:49 | 54.37954 | 18.46583 | 449 ft | 7 kts | 147° |
| 2026-04-23 18:49 | 54.37925 | 18.46660 | 449 ft | 9 kts | 114° |
| 2026-04-23 18:49 | 54.37899 | 18.46763 | 449 ft | 9 kts | 112° |
| 2026-04-23 18:49 | 54.37877 | 18.46854 | 450 ft | 9 kts | 113° |
| 2026-04-23 18:50 | 54.37854 | 18.46949 | 449 ft | 16 kts | 112° |
| 2026-04-23 18:50 | 54.37801 | 18.47164 | 452 ft | 14 kts | 112° |
| 2026-04-23 18:50 | 54.37752 | 18.47356 | 452 ft | 16 kts | 114° |
| 2026-04-23 18:50 | 54.37714 | 18.47512 | 454 ft | 12 kts | 113° |
| 2026-04-23 18:51 | 54.37682 | 18.47640 | 458 ft | 12 kts | 112° |
| 2026-04-23 18:51 | 54.37649 | 18.47774 | 461 ft | 15 kts | 112° |
| 2026-04-23 18:51 | 54.37604 | 18.47960 | 465 ft | 16 kts | 112° |
| 2026-04-23 18:51 | 54.37566 | 18.48112 | 468 ft | 12 kts | 112° |
| 2026-04-23 18:52 | 54.37525 | 18.48278 | 471 ft | 17 kts | 112° |
| 2026-04-23 18:52 | 54.37487 | 18.48432 | 476 ft | 11 kts | 112° |
| 2026-04-23 18:52 | 54.37455 | 18.48560 | 479 ft | 16 kts | 112° |
| 2026-04-23 18:52 | 54.37407 | 18.48753 | 481 ft | 19 kts | 112° |
| 2026-04-23 18:53 | 54.37353 | 18.48969 | 485 ft | 18 kts | 112° |
| 2026-04-23 18:53 | 54.37309 | 18.49126 | 487 ft | 11 kts | 135° |
| 2026-04-23 18:53 | 54.37248 | 18.49132 | 486 ft | 0 kts | 203° |
| 2026-04-23 18:54 | 54.37203 | 18.49099 | 485 ft | 10 kts | 203° |
| 2026-04-23 18:54 | 54.37167 | 18.49008 | 485 ft | 9 kts | 277° |
| 2026-04-23 18:55 | 54.37197 | 18.48874 | 483 ft | 28 kts | 293° |
| 2026-04-23 18:55 | 54.37417 | 18.47989 | 465 ft | 128 kts | 293° |
| 2026-04-23 18:55 | 54.37864 | 18.46185 | 676 ft | 190 kts | 294° |
| 2026-04-23 18:55 | 54.38413 | 18.43966 | 1429 ft | 222 kts | 294° |
| 2026-04-23 18:56 | 54.38832 | 18.42244 | 2024 ft | 244 kts | 294° |
| 2026-04-23 18:56 | 54.39635 | 18.38953 | 3581 ft | 235 kts | 293° |
| 2026-04-23 18:56 | 54.40302 | 18.36306 | 4230 ft | 247 kts | 292° |
| 2026-04-23 18:56 | 54.40984 | 18.33638 | 5076 ft | 252 kts | 295° |
| 2026-04-23 18:57 | 54.42035 | 18.31220 | 5777 ft | 269 kts | 317° |
| 2026-04-23 18:57 | 54.43681 | 18.29587 | 6618 ft | 279 kts | 334° |
| 2026-04-23 18:57 | 54.45480 | 18.28259 | 7519 ft | 285 kts | 335° |
| 2026-04-23 18:57 | 54.47304 | 18.26878 | 8541 ft | 286 kts | 333° |
| 2026-04-23 18:58 | 54.49081 | 18.25428 | 9443 ft | 292 kts | 331° |
| 2026-04-23 18:58 | 54.50813 | 18.23938 | 10431 ft | 294 kts | 330° |
| 2026-04-23 18:58 | 54.52126 | 18.22767 | 10773 ft | 310 kts | 329° |
| 2026-04-23 18:58 | 54.54100 | 18.20963 | 11113 ft | 336 kts | 329° |
| 2026-04-23 18:59 | 54.56253 | 18.18967 | 11372 ft | 362 kts | 329° |
| 2026-04-23 18:59 | 54.58504 | 18.16856 | 11910 ft | 377 kts | 329° |
| 2026-04-23 18:59 | 54.60788 | 18.14693 | 12683 ft | 384 kts | 328° |
| 2026-04-23 18:59 | 54.63120 | 18.12458 | 13586 ft | 387 kts | 328° |
| 2026-04-23 19:00 | 54.65487 | 18.10172 | 14464 ft | 392 kts | 328° |
| 2026-04-23 19:00 | 54.67853 | 18.07883 | 15339 ft | 396 kts | 328° |
| 2026-04-23 19:00 | 54.70246 | 18.05574 | 16198 ft | 400 kts | 328° |
| 2026-04-23 19:00 | 54.72654 | 18.03267 | 17023 ft | 405 kts | 328° |
| 2026-04-23 19:01 | 54.75112 | 18.00932 | 17833 ft | 409 kts | 328° |
| 2026-04-23 19:01 | 54.77620 | 17.98567 | 18622 ft | 413 kts | 329° |
| 2026-04-23 19:01 | 54.80167 | 17.96173 | 19399 ft | 417 kts | 329° |
| 2026-04-23 19:01 | 54.82716 | 17.93783 | 20142 ft | 421 kts | 329° |
| 2026-04-23 19:02 | 54.84419 | 17.92186 | 20620 ft | 424 kts | 329° |
| 2026-04-23 19:02 | 54.87871 | 17.88948 | 21558 ft | 429 kts | 329° |
| 2026-04-23 19:02 | 54.90502 | 17.86477 | 22210 ft | 434 kts | 329° |
| 2026-04-23 19:02 | 54.93167 | 17.83971 | 22837 ft | 439 kts | 329° |
| 2026-04-23 19:03 | 54.95831 | 17.81462 | 23441 ft | 443 kts | 329° |
| 2026-04-23 19:03 | 54.98564 | 17.78886 | 24031 ft | 448 kts | 329° |
| 2026-04-23 19:03 | 55.01311 | 17.76293 | 24607 ft | 452 kts | 329° |
| 2026-04-23 19:03 | 55.04081 | 17.73674 | 25160 ft | 457 kts | 329° |
| 2026-04-23 19:04 | 55.06859 | 17.71044 | 25740 ft | 460 kts | 329° |
| 2026-04-23 19:04 | 55.09683 | 17.68365 | 26057 ft | 467 kts | 329° |
| 2026-04-23 19:04 | 55.12525 | 17.65666 | 26043 ft | 464 kts | 329° |
| 2026-04-23 19:04 | 55.15345 | 17.62984 | 26193 ft | 463 kts | 329° |
| 2026-04-23 19:05 | 55.18135 | 17.60328 | 26802 ft | 465 kts | 329° |
| 2026-04-23 19:05 | 55.20995 | 17.57597 | 27267 ft | 470 kts | 329° |
| 2026-04-23 19:05 | 55.23847 | 17.54871 | 27897 ft | 470 kts | 329° |
| 2026-04-23 19:05 | 55.26716 | 17.52126 | 28563 ft | 469 kts | 329° |
| 2026-04-23 19:06 | 55.29549 | 17.49411 | 29267 ft | 467 kts | 329° |
| 2026-04-23 19:06 | 55.32372 | 17.46701 | 29956 ft | 465 kts | 329° |
| 2026-04-23 19:06 | 55.35191 | 17.43990 | 30632 ft | 463 kts | 329° |
| 2026-04-23 19:06 | 55.37965 | 17.41317 | 31291 ft | 460 kts | 328° |
| 2026-04-23 19:07 | 55.40768 | 17.38612 | 31947 ft | 458 kts | 328° |
| 2026-04-23 19:07 | 55.43539 | 17.35933 | 32580 ft | 456 kts | 328° |
| 2026-04-23 19:07 | 55.46281 | 17.33277 | 33223 ft | 454 kts | 328° |
| 2026-04-23 19:07 | 55.49035 | 17.30604 | 33836 ft | 452 kts | 328° |
| 2026-04-23 19:08 | 55.51759 | 17.27955 | 34416 ft | 450 kts | 328° |
| 2026-04-23 19:08 | 55.54491 | 17.25296 | 34945 ft | 450 kts | 328° |
| 2026-04-23 19:08 | 55.57339 | 17.22851 | 35061 ft | 455 kts | 334° |
| 2026-04-23 19:09 | 55.63394 | 17.20214 | 35048 ft | 455 kts | 353° |
| 2026-04-23 19:09 | 55.69719 | 17.21269 | 35046 ft | 465 kts | 12° |
| 2026-04-23 19:10 | 55.75714 | 17.25659 | 35047 ft | 471 kts | 21° |
| 2026-04-23 19:10 | 55.81627 | 17.30385 | 35047 ft | 470 kts | 21° |
| 2026-04-23 19:11 | 55.87571 | 17.35147 | 35047 ft | 470 kts | 21° |
| 2026-04-23 19:11 | 55.93504 | 17.39926 | 35047 ft | 470 kts | 21° |
| 2026-04-23 19:12 | 55.98464 | 17.43938 | 35047 ft | 470 kts | 21° |
| 2026-04-23 19:12 | 56.05362 | 17.49540 | 35047 ft | 470 kts | 21° |
| 2026-04-23 19:13 | 56.11329 | 17.54406 | 35047 ft | 470 kts | 21° |
| 2026-04-23 19:13 | 56.17239 | 17.59242 | 35047 ft | 470 kts | 21° |
| 2026-04-23 19:14 | 56.23177 | 17.64119 | 35042 ft | 470 kts | 21° |
| 2026-04-23 19:14 | 56.29079 | 17.68980 | 35034 ft | 470 kts | 21° |
| 2026-04-23 19:15 | 56.35032 | 17.73899 | 35023 ft | 471 kts | 21° |
| 2026-04-23 19:15 | 56.40939 | 17.78798 | 35020 ft | 470 kts | 21° |
| 2026-04-23 19:16 | 56.46843 | 17.83713 | 35020 ft | 470 kts | 21° |
| 2026-04-23 19:16 | 56.52793 | 17.88684 | 35020 ft | 470 kts | 21° |
| 2026-04-23 19:17 | 56.61660 | 17.96124 | 35020 ft | 470 kts | 21° |
| 2026-04-23 19:17 | 56.67567 | 18.01102 | 35020 ft | 470 kts | 21° |
| 2026-04-23 19:18 | 56.73462 | 18.06086 | 35020 ft | 470 kts | 21° |
| 2026-04-23 19:18 | 56.79366 | 18.11097 | 35020 ft | 470 kts | 21° |
| 2026-04-23 19:19 | 56.88224 | 18.18645 | 35020 ft | 470 kts | 21° |
| 2026-04-23 19:20 | 56.97119 | 18.26266 | 35020 ft | 470 kts | 21° |
| 2026-04-23 19:20 | 57.03016 | 18.31343 | 35020 ft | 474 kts | 21° |
| 2026-04-23 19:21 | 57.11979 | 18.39091 | 35020 ft | 480 kts | 21° |
| 2026-04-23 19:22 | 57.18002 | 18.44319 | 35020 ft | 480 kts | 21° |
| 2026-04-23 19:22 | 57.27039 | 18.52202 | 35020 ft | 479 kts | 21° |
| 2026-04-23 19:23 | 57.33043 | 18.57462 | 35020 ft | 479 kts | 21° |
| 2026-04-23 19:24 | 57.42030 | 18.65371 | 35019 ft | 480 kts | 22° |
| 2026-04-23 19:24 | 57.51051 | 18.73344 | 35020 ft | 480 kts | 22° |
| 2026-04-23 19:25 | 57.63036 | 18.84012 | 35020 ft | 480 kts | 22° |
| 2026-04-23 19:26 | 57.72008 | 18.92052 | 35020 ft | 480 kts | 22° |
| 2026-04-23 19:27 | 57.86979 | 19.05572 | 35020 ft | 476 kts | 22° |
| 2026-04-23 19:28 | 57.98784 | 19.16319 | 35020 ft | 471 kts | 22° |
| 2026-04-23 19:29 | 58.07546 | 19.24345 | 35020 ft | 469 kts | 22° |
| 2026-04-23 19:30 | 58.16325 | 19.32430 | 35020 ft | 470 kts | 22° |
| 2026-04-23 19:31 | 58.25073 | 19.40533 | 35020 ft | 469 kts | 22° |
| 2026-04-23 19:31 | 58.30914 | 19.45969 | 35020 ft | 469 kts | 22° |
| 2026-04-23 19:32 | 58.36750 | 19.51419 | 35020 ft | 469 kts | 22° |
| 2026-04-23 19:32 | 58.42591 | 19.56894 | 35017 ft | 469 kts | 22° |
| 2026-04-23 19:33 | 58.48423 | 19.62382 | 34994 ft | 469 kts | 22° |
| 2026-04-23 19:33 | 58.57185 | 19.70660 | 34940 ft | 470 kts | 23° |
| 2026-04-23 19:34 | 58.63021 | 19.76200 | 34939 ft | 469 kts | 23° |
| 2026-04-23 19:35 | 58.71749 | 19.84525 | 34939 ft | 470 kts | 23° |
| 2026-04-23 19:35 | 58.77585 | 19.90119 | 34939 ft | 470 kts | 23° |
| 2026-04-23 19:36 | 58.83424 | 19.95736 | 34939 ft | 470 kts | 23° |
| 2026-04-23 19:36 | 58.89224 | 20.01339 | 34939 ft | 470 kts | 23° |
| 2026-04-23 19:37 | 58.95061 | 20.06999 | 34939 ft | 473 kts | 23° |
| 2026-04-23 19:37 | 59.00946 | 20.12725 | 34939 ft | 476 kts | 23° |
| 2026-04-23 19:38 | 59.06829 | 20.18472 | 34939 ft | 479 kts | 23° |
| 2026-04-23 19:38 | 59.12770 | 20.24298 | 34938 ft | 478 kts | 23° |
| 2026-04-23 19:39 | 59.18680 | 20.30119 | 34939 ft | 477 kts | 23° |
| 2026-04-23 19:39 | 59.21508 | 20.33505 | 34934 ft | 482 kts | 34° |
| 2026-04-23 19:39 | 59.24052 | 20.37711 | 34945 ft | 485 kts | 39° |
| 2026-04-23 19:40 | 59.29007 | 20.46595 | 34938 ft | 485 kts | 39° |
| 2026-04-23 19:40 | 59.33944 | 20.55486 | 34939 ft | 485 kts | 39° |
| 2026-04-23 19:41 | 59.38914 | 20.64449 | 34938 ft | 485 kts | 39° |
| 2026-04-23 19:41 | 59.43869 | 20.73399 | 34939 ft | 485 kts | 40° |
| 2026-04-23 19:42 | 59.48794 | 20.82325 | 34939 ft | 485 kts | 40° |
| 2026-04-23 19:42 | 59.53729 | 20.91311 | 34939 ft | 485 kts | 40° |
| 2026-04-23 19:43 | 59.58637 | 21.00291 | 34938 ft | 482 kts | 40° |
| 2026-04-23 19:43 | 59.63522 | 21.09263 | 34939 ft | 478 kts | 39° |
| 2026-04-23 19:44 | 59.68353 | 21.18164 | 34930 ft | 476 kts | 39° |
| 2026-04-23 19:44 | 59.73190 | 21.27109 | 34910 ft | 477 kts | 39° |
| 2026-04-23 19:45 | 59.78002 | 21.36047 | 34889 ft | 477 kts | 39° |
| 2026-04-23 19:45 | 59.82831 | 21.45057 | 34884 ft | 477 kts | 39° |
| 2026-04-23 19:45 | 59.85226 | 21.49540 | 34772 ft | 475 kts | 39° |
| 2026-04-23 19:46 | 59.87633 | 21.54056 | 33892 ft | 476 kts | 39° |
| 2026-04-23 19:46 | 59.90022 | 21.58544 | 32985 ft | 475 kts | 39° |
| 2026-04-23 19:46 | 59.92404 | 21.63024 | 31968 ft | 476 kts | 40° |
| 2026-04-23 19:46 | 59.94788 | 21.67516 | 30861 ft | 478 kts | 41° |
| 2026-04-23 19:47 | 59.97191 | 21.72052 | 29555 ft | 478 kts | 41° |
| 2026-04-23 19:47 | 59.99572 | 21.76559 | 28657 ft | 470 kts | 41° |
| 2026-04-23 19:47 | 60.01916 | 21.81005 | 27198 ft | 472 kts | 41° |
| 2026-04-23 19:47 | 60.04265 | 21.85471 | 26006 ft | 474 kts | 41° |
| 2026-04-23 19:48 | 60.06665 | 21.90039 | 24295 ft | 483 kts | 42° |
| 2026-04-23 19:48 | 60.09058 | 21.94608 | 23235 ft | 476 kts | 42° |
| 2026-04-23 19:48 | 60.11433 | 21.99159 | 22113 ft | 469 kts | 42° |
| 2026-04-23 19:48 | 60.13746 | 22.03598 | 21093 ft | 461 kts | 42° |
| 2026-04-23 19:49 | 60.16019 | 22.07972 | 20048 ft | 454 kts | 43° |
| 2026-04-23 19:49 | 60.18272 | 22.12314 | 19022 ft | 447 kts | 43° |
| 2026-04-23 19:49 | 60.20466 | 22.16549 | 18157 ft | 436 kts | 43° |
| 2026-04-23 19:49 | 60.22619 | 22.20717 | 17365 ft | 428 kts | 43° |
| 2026-04-23 19:50 | 60.24735 | 22.24820 | 16577 ft | 425 kts | 43° |
| 2026-04-23 19:50 | 60.26859 | 22.28944 | 15823 ft | 424 kts | 43° |
| 2026-04-23 19:50 | 60.28505 | 22.32146 | 15218 ft | 412 kts | 43° |
| 2026-04-23 19:50 | 60.30515 | 22.36064 | 14509 ft | 405 kts | 43° |
| 2026-04-23 19:51 | 60.32554 | 22.40041 | 13859 ft | 409 kts | 43° |
| 2026-04-23 19:51 | 60.34556 | 22.43955 | 12770 ft | 406 kts | 43° |
| 2026-04-23 19:51 | 60.36540 | 22.47841 | 12180 ft | 390 kts | 43° |
| 2026-04-23 19:51 | 60.38490 | 22.51670 | 11591 ft | 394 kts | 43° |
| 2026-04-23 19:52 | 60.40424 | 22.55480 | 10446 ft | 387 kts | 43° |
| 2026-04-23 19:52 | 60.42283 | 22.59166 | 9300 ft | 367 kts | 45° |
| 2026-04-23 19:52 | 60.43795 | 22.63154 | 8148 ft | 352 kts | 59° |
| 2026-04-23 19:52 | 60.44638 | 22.67615 | 7010 ft | 341 kts | 79° |
| 2026-04-23 19:53 | 60.44832 | 22.72290 | 5875 ft | 331 kts | 88° |
| 2026-04-23 19:53 | 60.44880 | 22.76841 | 4729 ft | 324 kts | 89° |
| 2026-04-23 19:53 | 60.44923 | 22.81336 | 3570 ft | 317 kts | 88° |
| 2026-04-23 19:53 | 60.44986 | 22.85675 | 2607 ft | 305 kts | 84° |
| 2026-04-23 19:54 | 60.45613 | 22.89521 | 2271 ft | 272 kts | 55° |
| 2026-04-23 19:54 | 60.46741 | 22.92235 | 2270 ft | 239 kts | 45° |
| 2026-04-23 19:54 | 60.47905 | 22.94365 | 2268 ft | 212 kts | 31° |
| 2026-04-23 19:54 | 60.49197 | 22.95291 | 2273 ft | 186 kts | 1° |
| 2026-04-23 19:55 | 60.50391 | 22.94964 | 2276 ft | 170 kts | 338° |
| 2026-04-23 19:55 | 60.51430 | 22.93748 | 2277 ft | 169 kts | 316° |
| 2026-04-23 19:55 | 60.52118 | 22.91902 | 2274 ft | 165 kts | 295° |
| 2026-04-23 19:55 | 60.52422 | 22.89653 | 2281 ft | 168 kts | 276° |
| 2026-04-23 19:56 | 60.52472 | 22.87272 | 2277 ft | 168 kts | 272° |
| 2026-04-23 19:56 | 60.52502 | 22.84913 | 2280 ft | 169 kts | 273° |
| 2026-04-23 19:56 | 60.52547 | 22.82549 | 2284 ft | 166 kts | 274° |
| 2026-04-23 19:56 | 60.52598 | 22.80195 | 2270 ft | 167 kts | 274° |
| 2026-04-23 19:57 | 60.52787 | 22.77881 | 2273 ft | 166 kts | 283° |
| 2026-04-23 19:57 | 60.53057 | 22.75598 | 2266 ft | 162 kts | 284° |
| 2026-04-23 19:57 | 60.53228 | 22.73435 | 2254 ft | 150 kts | 274° |
| 2026-04-23 19:57 | 60.53242 | 22.71352 | 2278 ft | 147 kts | 271° |
| 2026-04-23 19:58 | 60.53207 | 22.69255 | 2275 ft | 147 kts | 268° |
| 2026-04-23 19:58 | 60.53137 | 22.67175 | 2275 ft | 147 kts | 267° |
| 2026-04-23 19:58 | 60.53058 | 22.65145 | 2312 ft | 147 kts | 267° |
| 2026-04-23 19:58 | 60.52973 | 22.63052 | 2261 ft | 147 kts | 267° |
| 2026-04-23 19:59 | 60.52888 | 22.60992 | 2273 ft | 146 kts | 267° |
| 2026-04-23 19:59 | 60.52802 | 22.58912 | 2274 ft | 147 kts | 267° |
| 2026-04-23 19:59 | 60.52718 | 22.56863 | 2273 ft | 147 kts | 267° |
| 2026-04-23 19:59 | 60.52632 | 22.54802 | 2272 ft | 147 kts | 267° |
| 2026-04-23 20:00 | 60.52546 | 22.52733 | 2294 ft | 142 kts | 267° |
| 2026-04-23 20:00 | 60.52465 | 22.50822 | 2231 ft | 130 kts | 267° |
| 2026-04-23 20:00 | 60.52387 | 22.48961 | 2174 ft | 137 kts | 267° |
| 2026-04-23 20:00 | 60.52307 | 22.47053 | 1952 ft | 133 kts | 267° |
| 2026-04-23 20:01 | 60.52228 | 22.45197 | 1793 ft | 133 kts | 267° |
| 2026-04-23 20:01 | 60.52148 | 22.43324 | 1633 ft | 133 kts | 267° |
| 2026-04-23 20:01 | 60.52070 | 22.41476 | 1432 ft | 132 kts | 267° |
| 2026-04-23 20:01 | 60.51990 | 22.39614 | 1249 ft | 132 kts | 267° |
| 2026-04-23 20:02 | 60.51903 | 22.37744 | 1074 ft | 132 kts | 266° |
| 2026-04-23 20:02 | 60.51821 | 22.35913 | 911 ft | 131 kts | 267° |
| 2026-04-23 20:02 | 60.51745 | 22.34032 | 742 ft | 132 kts | 266° |
| 2026-04-23 20:02 | 60.51664 | 22.32191 | 564 ft | 132 kts | 266° |
| 2026-04-23 20:03 | 60.51586 | 22.30319 | 382 ft | 131 kts | 266° |
| 2026-04-23 20:03 | 60.51509 | 22.28503 | 208 ft | 125 kts | 266° |
| 2026-04-23 20:03 | 60.51442 | 22.26926 | 166 ft | 83 kts | 265° |
| 2026-04-23 20:03 | 60.51409 | 22.26211 | 160 ft | 31 kts | 265° |
| 2026-04-23 20:04 | 60.51392 | 22.25813 | 156 ft | 22 kts | 264° |
| 2026-04-23 20:04 | 60.51379 | 22.25542 | 153 ft | 17 kts | 265° |
| 2026-04-23 20:04 | 60.51352 | 22.25337 | 151 ft | 14 kts | 232° |
| 2026-04-23 20:04 | 60.51267 | 22.25260 | 149 ft | 12 kts | 171° |
| 2026-04-23 20:05 | 60.51209 | 22.25360 | 151 ft | 10 kts | 111° |
| 2026-04-23 20:05 | 60.51205 | 22.25480 | 153 ft | 6 kts | 88° |
| 2026-04-23 20:05 | 60.51210 | 22.25576 | 154 ft | 10 kts | 84° |
| 2026-04-23 20:05 | 60.51217 | 22.25722 | 155 ft | 11 kts | 84° |
| 2026-04-23 20:06 | 60.51226 | 22.25907 | 159 ft | 12 kts | 85° |
| 2026-04-23 20:06 | 60.51234 | 22.26091 | 161 ft | 12 kts | 77° |
| 2026-04-23 20:06 | 60.51265 | 22.26245 | 162 ft | 11 kts | 62° |
| 2026-04-23 20:06 | 60.51292 | 22.26389 | 165 ft | 12 kts | 74° |
| 2026-04-23 20:07 | 60.51304 | 22.26583 | 165 ft | 13 kts | 85° |
| 2026-04-23 20:07 | 60.51312 | 22.26761 | 167 ft | 14 kts | 84° |
| 2026-04-23 20:07 | 60.51321 | 22.26963 | 167 ft | 13 kts | 85° |
| 2026-04-23 20:07 | 60.51329 | 22.27143 | 167 ft | 12 kts | 84° |
| 2026-04-23 20:08 | 60.51311 | 22.27283 | 167 ft | 10 kts | 159° |
| 2026-04-23 20:08 | 60.51248 | 22.27245 | 167 ft | 9 kts | 207° |
| 2026-04-23 20:08 | 60.51243 | 22.27239 | 167 ft | 0 kts | 208° |
| 2026-04-23 20:08 | 60.51259 | 22.27257 | 167 ft | 0 kts | 208° |
| 2026-04-23 20:09 | 60.51254 | 22.27256 | 167 ft | 2 kts | 176° |
| 2026-04-23 20:09 | 60.51208 | 22.27301 | 167 ft | 9 kts | 149° |
| 2026-04-23 20:09 | 60.51187 | 22.27328 | 167 ft | 0 kts | 149° |